createdAt,value
2023-01-15T00:01:20.812Z,64.15
2023-01-15T00:03:23.376Z,63.54
2023-01-15T00:05:27.317Z,63.96
2023-01-15T00:07:30.370Z,63.58
2023-01-15T00:09:33.041Z,63.46
2023-01-15T00:11:35.833Z,63.62
2023-01-15T00:13:38.427Z,63.31
2023-01-15T00:15:41.019Z,63.81
2023-01-15T00:17:43.564Z,63.30
2023-01-15T00:19:46.112Z,63.67
2023-01-15T00:21:50.012Z,63.73
2023-01-15T00:24:10.407Z,63.27
2023-01-15T00:26:32.695Z,62.95
2023-01-15T00:28:35.276Z,63.70
2023-01-15T00:30:41.483Z,63.01
2023-01-15T00:32:45.843Z,63.45
2023-01-15T00:34:48.380Z,63.42
2023-01-15T00:36:52.243Z,62.93
2023-01-15T00:38:54.839Z,63.33
2023-01-15T00:40:57.391Z,62.26
2023-01-15T00:43:02.615Z,63.23
2023-01-15T00:45:10.049Z,62.93
2023-01-15T00:47:14.936Z,62.77
2023-01-15T00:49:17.865Z,62.68
2023-01-15T00:51:20.415Z,62.41
2023-01-15T00:53:24.426Z,62.52
2023-01-15T00:55:30.031Z,62.49
2023-01-15T00:57:32.621Z,62.67
2023-01-15T00:59:38.114Z,63.08
2023-01-15T01:01:40.874Z,63.03
2023-01-15T01:03:48.943Z,64.16
2023-01-15T01:05:51.773Z,64.56
2023-01-15T01:07:54.370Z,65.54
2023-01-15T01:09:58.254Z,65.53
2023-01-15T01:12:00.766Z,65.89
2023-01-15T01:14:03.338Z,65.94
2023-01-15T01:16:19.050Z,65.85
2023-01-15T01:18:21.637Z,65.23
2023-01-15T01:20:24.184Z,66.11
2023-01-15T01:22:26.736Z,66.45
2023-01-15T01:24:29.283Z,66.55
2023-01-15T01:26:33.635Z,66.01
2023-01-15T01:28:36.216Z,66.00
2023-01-15T01:30:39.655Z,66.63
2023-01-15T01:32:45.276Z,67.58
2023-01-15T01:34:47.839Z,67.39
2023-01-15T01:36:50.395Z,67.44
2023-01-15T01:38:53.099Z,67.47
2023-01-15T01:40:55.735Z,68.09
2023-01-15T01:42:59.659Z,66.76
2023-01-15T01:45:07.753Z,66.15
2023-01-15T01:47:15.404Z,66.62
2023-01-15T01:49:17.986Z,66.42
2023-01-15T01:51:25.354Z,66.52
2023-01-15T01:53:29.965Z,66.24
2023-01-15T01:55:35.539Z,66.42
2023-01-15T01:57:39.672Z,66.29
2023-01-15T01:59:44.225Z,67.04
2023-01-15T02:01:47.373Z,66.60
2023-01-15T02:03:50.172Z,66.70
2023-01-15T02:05:56.541Z,65.95
2023-01-15T02:07:59.386Z,66.21
2023-01-15T02:10:01.968Z,66.75
2023-01-15T02:12:12.608Z,65.70
2023-01-15T02:14:22.328Z,65.55
2023-01-15T02:16:31.484Z,65.93
2023-01-15T02:18:41.541Z,65.85
2023-01-15T02:20:49.147Z,65.74
2023-01-15T02:23:04.404Z,65.50
2023-01-15T02:25:18.455Z,65.40
2023-01-15T02:27:24.679Z,66.43
2023-01-15T02:29:34.926Z,65.79
2023-01-15T02:31:40.149Z,66.36
2023-01-15T02:33:48.791Z,65.97
2023-01-15T02:35:57.830Z,66.12
2023-01-15T02:38:03.673Z,66.52
2023-01-15T02:40:08.593Z,67.14
2023-01-15T02:42:13.224Z,66.90
2023-01-15T02:44:19.585Z,66.42
2023-01-15T02:46:26.750Z,67.04
2023-01-15T02:48:32.027Z,67.09
2023-01-15T02:50:39.213Z,67.26
2023-01-15T02:52:45.347Z,67.75
2023-01-15T02:54:52.239Z,67.47
2023-01-15T02:56:58.112Z,67.79
2023-01-15T02:59:06.987Z,67.19
2023-01-15T03:01:15.567Z,67.58
2023-01-15T03:03:25.227Z,67.03
2023-01-15T03:05:32.138Z,67.17
2023-01-15T03:07:41.723Z,67.58
2023-01-15T03:09:44.827Z,68.53
2023-01-15T03:11:53.736Z,67.76
2023-01-15T03:14:03.811Z,67.19
2023-01-15T03:16:32.315Z,68.03
2023-01-15T03:18:40.326Z,67.41
2023-01-15T03:20:48.548Z,67.49
2023-01-15T03:22:55.048Z,67.70
2023-01-15T03:25:04.094Z,67.93
2023-01-15T03:27:07.704Z,68.02
2023-01-15T03:29:11.908Z,68.11
2023-01-15T03:31:16.212Z,67.98
2023-01-15T03:33:19.519Z,68.36
2023-01-15T03:35:46.866Z,68.06
2023-01-15T03:37:49.543Z,68.46
2023-01-15T03:39:53.545Z,68.29
2023-01-15T03:42:07.826Z,68.63
2023-01-15T03:44:20.765Z,68.84
2023-01-15T03:46:49.756Z,68.93
2023-01-15T03:49:00.037Z,68.88
2023-01-15T03:51:09.586Z,69.01
2023-01-15T03:53:16.717Z,69.39
2023-01-15T03:55:23.339Z,69.80
2023-01-15T03:57:35.360Z,71.03
2023-01-15T03:59:45.702Z,71.62
2023-01-15T04:01:51.573Z,71.62
2023-01-15T04:03:55.125Z,72.61
2023-01-15T04:06:00.217Z,72.46
2023-01-15T04:08:04.264Z,72.57
2023-01-15T04:10:09.196Z,73.00
2023-01-15T04:12:12.355Z,72.99
2023-01-15T04:14:15.892Z,73.49
2023-01-15T04:16:25.030Z,73.32
2023-01-15T04:18:29.718Z,74.13
2023-01-15T04:20:32.314Z,73.10
2023-01-15T04:22:36.039Z,72.82
2023-01-15T04:24:38.700Z,72.24
2023-01-15T04:26:41.282Z,72.54
2023-01-15T04:28:44.034Z,71.94
2023-01-15T04:30:47.329Z,72.54
2023-01-15T04:32:50.542Z,72.50
2023-01-15T04:34:54.454Z,72.09
2023-01-15T04:36:58.066Z,71.50
2023-01-15T04:39:00.649Z,71.59
2023-01-15T04:41:21.486Z,71.14
2023-01-15T04:43:41.410Z,71.00
2023-01-15T04:45:44.495Z,71.12
2023-01-15T04:47:47.102Z,70.67
2023-01-15T04:49:49.879Z,70.96
2023-01-15T04:51:56.277Z,70.46
2023-01-15T04:54:02.042Z,69.90
2023-01-15T04:56:05.711Z,69.39
2023-01-15T04:58:08.607Z,69.08
2023-01-15T05:00:12.494Z,69.17
2023-01-15T05:02:15.583Z,69.12
2023-01-15T05:04:18.389Z,68.73
2023-01-15T05:06:20.998Z,68.83
2023-01-15T05:08:24.892Z,69.03
2023-01-15T05:10:27.505Z,69.57
2023-01-15T05:12:30.058Z,69.53
2023-01-15T05:14:32.620Z,68.77
2023-01-15T05:16:38.093Z,69.12
2023-01-15T05:18:40.777Z,69.26
2023-01-15T05:20:44.680Z,69.27
2023-01-15T05:22:47.253Z,69.90
2023-01-15T05:24:51.293Z,69.88
2023-01-15T05:26:55.156Z,69.99
2023-01-15T05:28:59.242Z,70.29
2023-01-15T05:31:07.613Z,70.31
2023-01-15T05:33:10.218Z,70.82
2023-01-15T05:35:12.775Z,70.72
2023-01-15T05:37:15.411Z,70.94
2023-01-15T05:39:18.106Z,70.84
2023-01-15T05:41:41.062Z,70.37
2023-01-15T05:43:43.645Z,70.75
2023-01-15T05:45:46.201Z,70.69
2023-01-15T05:47:48.773Z,70.65
2023-01-15T05:49:51.418Z,71.13
2023-01-15T05:51:54.889Z,71.71
2023-01-15T05:53:58.536Z,72.57
2023-01-15T05:56:01.991Z,72.94
2023-01-15T05:58:05.865Z,73.25
2023-01-15T06:00:09.920Z,72.93
2023-01-15T06:02:12.477Z,73.58
2023-01-15T06:04:15.750Z,73.73
2023-01-15T06:06:19.413Z,74.18
2023-01-15T06:08:22.314Z,74.34
2023-01-15T06:10:24.865Z,74.26
2023-01-15T06:12:27.459Z,74.15
2023-01-15T06:14:31.325Z,74.87
2023-01-15T06:16:34.750Z,74.44
2023-01-15T06:18:37.472Z,74.47
2023-01-15T06:20:41.046Z,75.56
2023-01-15T06:22:43.623Z,75.49
2023-01-15T06:24:46.209Z,75.48
2023-01-15T06:26:48.805Z,76.36
2023-01-15T06:28:51.707Z,75.15
2023-01-15T06:30:55.651Z,74.36
2023-01-15T06:32:58.323Z,73.96
2023-01-15T06:35:00.900Z,73.74
2023-01-15T06:37:03.458Z,74.77
2023-01-15T06:39:06.009Z,75.06
2023-01-15T06:41:27.256Z,74.97
2023-01-15T06:43:47.554Z,75.34
2023-01-15T06:46:07.880Z,76.50
2023-01-15T06:48:11.834Z,76.49
2023-01-15T06:50:15.731Z,76.55
2023-01-15T06:52:18.322Z,77.07
2023-01-15T06:54:20.882Z,76.77
2023-01-15T06:56:23.499Z,76.41
2023-01-15T06:58:26.099Z,75.75
2023-01-15T07:00:28.712Z,76.35
2023-01-15T07:02:31.309Z,76.92
2023-01-15T07:04:35.194Z,76.74
2023-01-15T07:06:37.909Z,77.16
2023-01-15T07:08:41.219Z,77.03
2023-01-15T07:10:43.824Z,76.76
2023-01-15T07:12:46.410Z,76.38
2023-01-15T07:14:48.973Z,76.35
2023-01-15T07:16:52.632Z,76.82
2023-01-15T07:18:56.176Z,76.86
2023-01-15T07:21:00.465Z,74.93
2023-01-15T07:23:02.978Z,75.73
2023-01-15T07:25:06.775Z,75.84
2023-01-15T07:27:09.359Z,74.11
2023-01-15T07:29:12.326Z,74.95
2023-01-15T07:31:14.892Z,74.96
2023-01-15T07:33:17.573Z,74.82
2023-01-15T07:35:20.119Z,75.21
2023-01-15T07:37:24.032Z,74.26
2023-01-15T07:39:26.583Z,74.13
2023-01-15T07:41:47.597Z,73.41
2023-01-15T07:44:07.653Z,73.50
2023-01-15T07:46:30.009Z,73.59
2023-01-15T07:48:50.020Z,71.56
2023-01-15T07:50:52.601Z,72.57
2023-01-15T07:52:56.527Z,72.99
2023-01-15T07:54:59.133Z,72.59
2023-01-15T07:57:01.860Z,72.61
2023-01-15T07:59:04.464Z,73.16
2023-01-15T08:01:07.439Z,73.74
2023-01-15T08:03:10.074Z,73.52
2023-01-15T08:05:12.895Z,72.76
2023-01-15T08:07:16.358Z,72.80
2023-01-15T08:09:20.370Z,72.70
2023-01-15T08:11:40.441Z,72.89
2023-01-15T08:14:00.803Z,73.17
2023-01-15T08:16:03.358Z,72.89
2023-01-15T08:18:07.028Z,73.02
2023-01-15T08:20:14.025Z,73.41
2023-01-15T08:22:16.561Z,73.57
2023-01-15T08:24:20.640Z,73.75
2023-01-15T08:26:23.276Z,73.51
2023-01-15T08:28:25.835Z,73.46
2023-01-15T08:30:28.395Z,73.83
2023-01-15T08:32:31.041Z,73.32
2023-01-15T08:34:33.692Z,73.18
2023-01-15T08:36:36.411Z,73.59
2023-01-15T08:38:38.946Z,71.81
2023-01-15T08:40:56.870Z,69.90
2023-01-15T08:42:59.441Z,70.19
2023-01-15T08:45:02.085Z,69.42
2023-01-15T08:47:04.729Z,70.09
2023-01-15T08:49:07.248Z,69.97
2023-01-15T08:51:11.507Z,69.32
2023-01-15T08:53:14.132Z,70.01
2023-01-15T08:55:17.014Z,70.64
2023-01-15T08:57:20.997Z,69.57
2023-01-15T08:59:23.831Z,68.95
2023-01-15T09:01:26.503Z,69.17
2023-01-15T09:03:29.078Z,68.94
2023-01-15T09:05:31.735Z,68.81
2023-01-15T09:07:35.364Z,70.17
2023-01-15T09:09:37.987Z,70.31
2023-01-15T09:11:41.520Z,70.75
2023-01-15T09:13:46.686Z,71.47
2023-01-15T09:15:49.216Z,71.14
2023-01-15T09:17:51.897Z,72.11
2023-01-15T09:19:54.636Z,71.20
2023-01-15T09:21:57.234Z,71.37
2023-01-15T09:23:59.948Z,70.61
2023-01-15T09:26:06.226Z,70.66
2023-01-15T09:28:08.972Z,71.44
2023-01-15T09:30:18.665Z,72.18
2023-01-15T09:32:24.273Z,71.22
2023-01-15T09:34:26.833Z,71.95
2023-01-15T09:36:31.368Z,72.57
2023-01-15T09:38:35.123Z,72.39
2023-01-15T09:40:47.420Z,73.48
2023-01-15T09:42:56.338Z,73.47
2023-01-15T09:45:20.159Z,73.16
2023-01-15T09:47:30.803Z,72.75
2023-01-15T09:49:50.000Z,72.17
2023-01-15T09:52:03.777Z,71.97
2023-01-15T09:54:21.269Z,72.32
2023-01-15T09:56:27.762Z,71.57
2023-01-15T09:58:35.285Z,70.91
2023-01-15T10:00:47.058Z,71.52
2023-01-15T10:02:53.885Z,69.74
2023-01-15T10:05:01.053Z,70.85
2023-01-15T10:07:12.465Z,70.74
2023-01-15T10:09:19.065Z,70.34
2023-01-15T10:11:46.539Z,70.49
2023-01-15T10:13:54.205Z,71.13
2023-01-15T10:15:59.266Z,70.04
2023-01-15T10:18:01.898Z,70.87
2023-01-15T10:20:04.834Z,70.66
2023-01-15T10:22:12.894Z,69.50
2023-01-15T10:24:20.053Z,68.54
2023-01-15T10:26:32.389Z,68.99
2023-01-15T10:28:50.493Z,67.49
2023-01-15T10:30:55.961Z,68.30
2023-01-15T10:33:14.741Z,66.77
2023-01-15T10:35:32.192Z,68.24
2023-01-15T10:37:42.047Z,68.94
2023-01-15T10:39:52.594Z,69.66
2023-01-15T10:42:06.405Z,69.91
2023-01-15T10:44:16.137Z,69.46
2023-01-15T10:46:21.303Z,70.47
2023-01-15T10:48:32.481Z,70.21
2023-01-15T10:50:36.243Z,68.99
2023-01-15T10:52:44.800Z,70.26
2023-01-15T10:54:52.250Z,68.62
2023-01-15T10:57:02.086Z,69.13
2023-01-15T10:59:13.553Z,69.57
2023-01-15T11:01:19.947Z,69.31
2023-01-15T11:03:31.197Z,68.70
2023-01-15T11:05:35.375Z,68.86
2023-01-15T11:08:03.231Z,68.97
2023-01-15T11:10:08.611Z,69.05
2023-01-15T11:12:38.725Z,69.73
2023-01-15T11:15:00.578Z,70.33
2023-01-15T11:17:21.249Z,71.23
2023-01-15T11:19:38.558Z,70.96
2023-01-15T11:21:43.353Z,70.29
2023-01-15T11:23:46.522Z,68.72
2023-01-15T11:25:51.681Z,69.52
2023-01-15T11:27:54.418Z,69.13
2023-01-15T11:29:59.294Z,69.27
2023-01-15T11:32:01.843Z,69.18
2023-01-15T11:34:06.216Z,68.58
2023-01-15T11:36:22.802Z,68.11
2023-01-15T11:38:26.585Z,69.41
2023-01-15T11:40:29.208Z,68.63
2023-01-15T11:42:49.682Z,69.15
2023-01-15T11:45:12.002Z,69.43
2023-01-15T11:47:37.308Z,69.13
2023-01-15T11:49:57.636Z,69.17
2023-01-15T11:52:04.129Z,69.79
2023-01-15T11:54:11.179Z,69.93
2023-01-15T11:56:17.461Z,69.75
2023-01-15T11:58:20.415Z,70.01
2023-01-15T12:00:25.756Z,69.71
2023-01-15T12:02:38.067Z,70.54
2023-01-15T12:04:51.191Z,70.97
2023-01-15T12:06:54.283Z,70.68
2023-01-15T12:09:07.078Z,71.57
2023-01-15T12:11:27.186Z,69.89
2023-01-15T12:13:33.985Z,71.08
2023-01-15T12:15:43.094Z,71.07
2023-01-15T12:18:15.458Z,71.39
2023-01-15T12:20:25.368Z,69.65
2023-01-15T12:22:42.423Z,70.27
2023-01-15T12:25:14.512Z,69.57
2023-01-15T12:27:32.044Z,65.97
2023-01-15T12:29:40.537Z,66.38
2023-01-15T12:31:48.610Z,66.92
2023-01-15T12:33:55.948Z,66.45
2023-01-15T12:36:03.860Z,66.40
2023-01-15T12:38:16.542Z,67.99
2023-01-15T12:40:26.542Z,67.05
2023-01-15T12:42:48.854Z,67.01
2023-01-15T12:45:08.898Z,67.94
2023-01-15T12:47:17.759Z,67.20
2023-01-15T12:49:33.542Z,67.88
2023-01-15T12:51:44.055Z,67.87
2023-01-15T12:53:52.557Z,67.34
2023-01-15T12:56:01.159Z,67.96
2023-01-15T12:58:07.100Z,67.84
2023-01-15T13:00:15.021Z,67.64
2023-01-15T13:02:23.131Z,66.80
2023-01-15T13:04:33.556Z,67.17
2023-01-15T13:06:40.531Z,67.50
2023-01-15T13:08:51.776Z,66.52
2023-01-15T13:10:56.538Z,67.17
2023-01-15T13:13:10.811Z,68.22
2023-01-15T13:15:17.604Z,69.36
2023-01-15T13:17:30.416Z,69.02
2023-01-15T13:19:40.752Z,69.56
2023-01-15T13:21:46.708Z,69.87
2023-01-15T13:24:07.906Z,70.75
2023-01-15T13:26:22.027Z,70.41
2023-01-15T13:28:36.530Z,71.27
2023-01-15T13:30:52.120Z,71.00
2023-01-15T13:32:59.260Z,70.93
2023-01-15T13:35:09.971Z,69.43
2023-01-15T13:37:21.378Z,69.79
2023-01-15T13:39:29.334Z,69.96
2023-01-15T13:41:53.167Z,70.22
2023-01-15T13:44:07.091Z,69.17
2023-01-15T13:46:12.967Z,67.91
2023-01-15T13:48:19.429Z,67.06
2023-01-15T13:50:30.892Z,67.69
2023-01-15T13:52:35.772Z,65.11
2023-01-15T13:54:43.144Z,66.11
2023-01-15T13:56:47.071Z,65.79
2023-01-15T13:58:54.536Z,65.81
2023-01-15T14:01:24.391Z,64.89
2023-01-15T14:03:28.862Z,65.00
2023-01-15T14:05:34.092Z,64.93
2023-01-15T14:07:38.280Z,66.08
2023-01-15T14:09:41.504Z,65.72
2023-01-15T14:12:01.748Z,66.11
2023-01-15T14:14:34.422Z,66.05
2023-01-15T14:16:54.876Z,66.35
2023-01-15T14:19:19.034Z,65.76
2023-01-15T14:21:35.135Z,66.57
2023-01-15T14:23:53.448Z,65.30
2023-01-15T14:26:08.019Z,64.97
2023-01-15T14:28:35.344Z,64.41
2023-01-15T14:31:06.145Z,63.91
2023-01-15T14:33:20.282Z,63.94
2023-01-15T14:35:25.195Z,63.89
2023-01-15T14:37:31.635Z,63.88
2023-01-15T14:39:43.798Z,64.10
2023-01-15T14:42:00.391Z,64.11
2023-01-15T14:44:04.576Z,64.63
2023-01-15T14:46:16.296Z,65.27
2023-01-15T14:48:21.358Z,63.83
2023-01-15T14:50:34.670Z,62.53
2023-01-15T14:52:37.412Z,62.01
2023-01-15T14:54:40.935Z,63.19
2023-01-15T14:56:46.342Z,62.98
2023-01-15T14:58:54.431Z,62.19
2023-01-15T15:01:02.501Z,62.95
2023-01-15T15:03:15.456Z,63.87
2023-01-15T15:05:20.069Z,63.64
2023-01-15T15:07:25.591Z,64.13
2023-01-15T15:09:35.057Z,63.42
2023-01-15T15:12:02.595Z,63.36
2023-01-15T15:14:08.030Z,63.19
2023-01-15T15:16:18.939Z,63.45
2023-01-15T15:18:29.916Z,63.32
2023-01-15T15:20:44.542Z,63.08
2023-01-15T15:22:50.521Z,64.01
2023-01-15T15:24:55.847Z,64.25
2023-01-15T15:26:58.413Z,64.11
2023-01-15T15:29:02.641Z,64.67
2023-01-15T15:31:05.530Z,64.94
2023-01-15T15:33:19.428Z,65.28
2023-01-15T15:35:27.032Z,65.67
2023-01-15T15:37:30.817Z,64.97
2023-01-15T15:39:42.242Z,65.55
2023-01-15T15:42:06.506Z,65.00
2023-01-15T15:44:32.779Z,65.22
2023-01-15T15:46:55.407Z,66.03
2023-01-15T15:48:59.455Z,65.78
2023-01-15T15:51:02.955Z,65.67
2023-01-15T15:53:06.834Z,65.49
2023-01-15T15:55:16.873Z,65.62
2023-01-15T15:57:21.241Z,64.76
2023-01-15T15:59:31.375Z,65.28
2023-01-15T16:01:38.769Z,65.20
2023-01-15T16:03:48.470Z,65.61
2023-01-15T16:05:59.870Z,65.98
2023-01-15T16:08:17.318Z,66.45
2023-01-15T16:10:25.353Z,65.69
2023-01-15T16:12:31.244Z,65.93
2023-01-15T16:14:37.025Z,65.68
2023-01-15T16:16:40.166Z,64.75
2023-01-15T16:18:45.536Z,65.10
2023-01-15T16:20:48.193Z,65.19
2023-01-15T16:22:56.935Z,65.22
2023-01-15T16:25:00.145Z,65.62
2023-01-15T16:27:07.561Z,64.49
2023-01-15T16:29:19.479Z,63.62
2023-01-15T16:31:23.056Z,63.27
2023-01-15T16:33:26.449Z,63.38
2023-01-15T16:35:30.449Z,62.93
2023-01-15T16:37:35.374Z,61.65
2023-01-15T16:39:41.545Z,61.74
2023-01-15T16:41:44.408Z,61.25
2023-01-15T16:43:54.358Z,61.06
2023-01-15T16:46:03.461Z,60.39
2023-01-15T16:48:27.388Z,60.12
2023-01-15T16:50:32.722Z,61.39
2023-01-15T16:52:37.603Z,60.54
2023-01-15T16:54:48.357Z,61.21
2023-01-15T16:56:54.340Z,61.87
2023-01-15T16:58:56.899Z,61.77
2023-01-15T17:00:59.542Z,60.97
2023-01-15T17:03:02.114Z,61.10
2023-01-15T17:05:16.084Z,60.61
2023-01-15T17:07:24.369Z,60.67
2023-01-15T17:09:27.497Z,60.45
2023-01-15T17:11:37.355Z,60.19
2023-01-15T17:13:41.570Z,60.33
2023-01-15T17:15:44.171Z,60.22
2023-01-15T17:17:48.014Z,60.14
2023-01-15T17:19:51.358Z,60.00
2023-01-15T17:21:53.916Z,59.59
2023-01-15T17:23:59.804Z,59.20
2023-01-15T17:26:03.974Z,59.41
2023-01-15T17:28:12.671Z,58.33
2023-01-15T17:30:16.470Z,58.58
2023-01-15T17:32:25.277Z,58.16
2023-01-15T17:34:27.854Z,57.99
2023-01-15T17:36:31.398Z,58.26
2023-01-15T17:38:33.951Z,58.44
2023-01-15T17:40:36.509Z,58.79
2023-01-15T17:42:39.111Z,58.04
2023-01-15T17:44:43.035Z,58.15
2023-01-15T17:46:45.644Z,57.86
2023-01-15T17:48:48.310Z,58.04
2023-01-15T17:50:50.850Z,58.80
2023-01-15T17:52:53.400Z,58.76
2023-01-15T17:55:13.969Z,58.35
2023-01-15T17:57:36.308Z,58.61
2023-01-15T17:59:56.355Z,58.68
2023-01-15T18:02:17.719Z,58.52
2023-01-15T18:04:42.923Z,59.19
2023-01-15T18:06:49.360Z,59.35
2023-01-15T18:08:56.711Z,59.86
2023-01-15T18:10:59.289Z,60.07
2023-01-15T18:13:03.644Z,59.41
2023-01-15T18:15:07.431Z,58.95
2023-01-15T18:17:11.611Z,59.18
2023-01-15T18:19:14.280Z,58.73
2023-01-15T18:21:16.842Z,58.69
2023-01-15T18:23:19.545Z,59.64
2023-01-15T18:25:22.113Z,59.20
2023-01-15T18:27:29.786Z,59.09
2023-01-15T18:29:32.352Z,59.13
2023-01-15T18:31:37.480Z,59.28
2023-01-15T18:33:41.600Z,59.21
2023-01-15T18:35:44.175Z,59.30
2023-01-15T18:37:46.740Z,59.36
2023-01-15T18:39:49.843Z,58.96
2023-01-15T18:42:10.271Z,58.72
2023-01-15T18:44:32.248Z,59.44
2023-01-15T18:46:48.746Z,59.02
2023-01-15T18:48:52.833Z,59.37
2023-01-15T18:50:55.825Z,58.50
2023-01-15T18:52:58.415Z,58.36
2023-01-15T18:55:01.547Z,58.19
2023-01-15T18:57:04.441Z,58.18
2023-01-15T18:59:08.725Z,58.99
2023-01-15T19:01:11.395Z,58.07
2023-01-15T19:03:14.065Z,57.83
2023-01-15T19:05:19.703Z,58.08
2023-01-15T19:07:22.283Z,58.44
2023-01-15T19:09:25.142Z,58.79
2023-01-15T19:11:28.025Z,58.67
2023-01-15T19:13:30.532Z,57.89
2023-01-15T19:15:50.650Z,58.27
2023-01-15T19:18:19.113Z,58.57
2023-01-15T19:20:23.107Z,58.65
2023-01-15T19:22:43.318Z,58.61
2023-01-15T19:24:46.911Z,58.51
2023-01-15T19:26:49.536Z,58.16
2023-01-15T19:28:52.103Z,58.39
2023-01-15T19:31:11.444Z,57.89
2023-01-15T19:33:14.031Z,57.38
2023-01-15T19:35:16.740Z,58.35
2023-01-15T19:37:20.938Z,58.72
2023-01-15T19:39:23.529Z,58.04
2023-01-15T19:41:43.511Z,58.20
2023-01-15T19:44:11.940Z,57.98
2023-01-15T19:46:32.198Z,58.35
2023-01-15T19:48:52.694Z,57.53
2023-01-15T19:50:55.354Z,57.99
2023-01-15T19:52:59.295Z,58.18
2023-01-15T19:55:03.101Z,58.28
2023-01-15T19:57:05.611Z,57.47
2023-01-15T19:59:08.617Z,57.40
2023-01-15T20:01:15.731Z,58.16
2023-01-15T20:03:18.473Z,58.30
2023-01-15T20:05:21.623Z,58.24
2023-01-15T20:07:24.215Z,57.59
2023-01-15T20:09:28.106Z,58.26
2023-01-15T20:11:50.857Z,58.39
2023-01-15T20:13:53.471Z,58.44
2023-01-15T20:15:55.993Z,57.89
2023-01-15T20:17:58.987Z,57.78
2023-01-15T20:20:01.594Z,57.04
2023-01-15T20:22:04.139Z,57.68
2023-01-15T20:24:07.543Z,57.02
2023-01-15T20:26:14.633Z,57.28
2023-01-15T20:28:17.299Z,57.74
2023-01-15T20:30:21.776Z,58.24
2023-01-15T20:32:24.356Z,58.50
2023-01-15T20:34:27.061Z,57.96
2023-01-15T20:36:33.973Z,57.59
2023-01-15T20:38:36.567Z,57.53
2023-01-15T20:40:39.226Z,57.11
2023-01-15T20:43:00.916Z,56.86
2023-01-15T20:45:08.087Z,56.97
2023-01-15T20:47:37.186Z,56.25
2023-01-15T20:49:38.770Z,57.02
2023-01-15T20:51:41.579Z,55.99
2023-01-15T20:53:44.189Z,56.83
2023-01-15T20:55:56.838Z,56.01
2023-01-15T20:58:01.451Z,55.64
2023-01-15T21:00:07.808Z,56.40
2023-01-15T21:02:13.179Z,56.15
2023-01-15T21:04:15.859Z,56.80
2023-01-15T21:06:18.514Z,55.73
2023-01-15T21:08:21.586Z,56.14
2023-01-15T21:10:25.316Z,56.46
2023-01-15T21:12:28.224Z,55.78
2023-01-15T21:14:32.098Z,56.21
2023-01-15T21:16:34.773Z,56.25
2023-01-15T21:18:37.404Z,56.19
2023-01-15T21:20:40.160Z,56.12
2023-01-15T21:22:43.258Z,55.76
2023-01-15T21:24:46.731Z,56.13
2023-01-15T21:26:49.365Z,56.03
2023-01-15T21:28:54.264Z,55.31
2023-01-15T21:31:00.155Z,55.80
2023-01-15T21:33:02.686Z,55.00
2023-01-15T21:35:05.670Z,55.38
2023-01-15T21:37:08.257Z,55.63
2023-01-15T21:39:12.450Z,55.61
2023-01-15T21:41:16.009Z,54.55
2023-01-15T21:43:37.125Z,55.08
2023-01-15T21:45:39.930Z,55.18
2023-01-15T21:47:44.539Z,54.55
2023-01-15T21:49:47.450Z,55.19
2023-01-15T21:51:50.044Z,54.75
2023-01-15T21:53:52.627Z,54.43
2023-01-15T21:55:55.159Z,54.62
2023-01-15T21:57:59.483Z,54.51
2023-01-15T22:00:02.125Z,54.35
2023-01-15T22:02:05.428Z,54.43
2023-01-15T22:04:09.447Z,54.43
2023-01-15T22:06:12.133Z,54.95
2023-01-15T22:08:16.419Z,54.71
2023-01-15T22:10:19.039Z,55.13
2023-01-15T22:12:21.683Z,55.16
2023-01-15T22:14:26.716Z,55.15
2023-01-15T22:16:29.305Z,55.93
2023-01-15T22:18:32.825Z,56.11
2023-01-15T22:20:36.710Z,56.25
2023-01-15T22:22:39.588Z,56.56
2023-01-15T22:24:42.180Z,56.34
2023-01-15T22:26:48.988Z,56.36
2023-01-15T22:28:51.828Z,56.16
2023-01-15T22:30:54.424Z,56.06
2023-01-15T22:32:58.922Z,55.69
2023-01-15T22:35:01.555Z,56.05
2023-01-15T22:37:05.638Z,56.02
2023-01-15T22:39:08.246Z,55.65
2023-01-15T22:41:11.117Z,56.27
2023-01-15T22:43:12.752Z,56.40
2023-01-15T22:45:15.312Z,56.00
2023-01-15T22:47:18.110Z,55.67
2023-01-15T22:49:21.014Z,55.72
2023-01-15T22:51:23.654Z,55.33
2023-01-15T22:53:27.540Z,55.56
2023-01-15T22:55:30.139Z,55.62
2023-01-15T22:57:32.713Z,56.15
2023-01-15T22:59:35.244Z,56.30
2023-01-15T23:01:37.996Z,56.25
2023-01-15T23:03:41.284Z,56.43
2023-01-15T23:05:43.911Z,56.30
2023-01-15T23:07:46.550Z,55.97
2023-01-15T23:09:50.426Z,56.02
2023-01-15T23:11:53.084Z,56.36
2023-01-15T23:13:56.016Z,56.19
2023-01-15T23:15:59.260Z,56.12
2023-01-15T23:18:01.958Z,56.60
2023-01-15T23:20:05.219Z,56.73
2023-01-15T23:22:07.823Z,57.13
2023-01-15T23:24:10.646Z,57.26
2023-01-15T23:26:17.378Z,57.28
2023-01-15T23:28:19.943Z,57.80
2023-01-15T23:30:22.540Z,57.63
2023-01-15T23:32:25.098Z,57.64
2023-01-15T23:34:27.768Z,57.84
2023-01-15T23:36:30.400Z,57.72
2023-01-15T23:38:33.082Z,57.90
2023-01-15T23:40:35.659Z,57.77
2023-01-15T23:42:57.127Z,57.24
2023-01-15T23:45:17.142Z,57.39
2023-01-15T23:47:19.793Z,57.66
2023-01-15T23:49:22.330Z,57.81
2023-01-15T23:51:24.874Z,57.75
2023-01-15T23:53:27.424Z,56.71
2023-01-15T23:55:30.243Z,56.66
2023-01-15T23:57:32.822Z,57.18
2023-01-15T23:59:36.767Z,57.17
